createdAt,value
2022-11-17T00:28:21.634Z,998.39
2022-11-17T00:58:21.639Z,998.31
2022-11-17T01:28:21.653Z,998.05
2022-11-17T01:58:21.648Z,997.68
2022-11-17T02:28:21.653Z,997.19
2022-11-17T02:58:21.660Z,996.85
2022-11-17T03:28:21.663Z,996.09
2022-11-17T03:58:21.671Z,996.18
2022-11-17T04:28:21.684Z,995.76
2022-11-17T04:58:21.672Z,995.13
2022-11-17T05:28:21.693Z,995.34
2022-11-17T05:58:21.701Z,995.42
2022-11-17T06:28:21.699Z,995.61
2022-11-17T06:58:21.736Z,995.66
2022-11-17T07:28:21.763Z,995.29
2022-11-17T07:58:21.732Z,995.38
2022-11-17T08:28:21.729Z,995.36
2022-11-17T08:58:21.716Z,995.6
2022-11-17T09:28:21.717Z,995.54
2022-11-17T09:58:21.719Z,995.41
2022-11-17T10:28:21.720Z,995.28
2022-11-17T10:58:21.722Z,995.35
2022-11-17T11:28:21.751Z,995.03
2022-11-17T11:58:21.760Z,994.76
2022-11-17T12:28:21.751Z,994.61
2022-11-17T13:17:22.151Z,995.45
2022-11-17T13:47:22.002Z,995.65
2022-11-17T14:17:22.037Z,995.51
2022-11-17T14:47:22.009Z,995.6
2022-11-17T15:17:22.023Z,995.84
2022-11-17T15:47:22.015Z,995.96
2022-11-17T16:17:22.014Z,996.12
2022-11-17T16:47:22.035Z,996.35
2022-11-17T17:17:22.041Z,996
2022-11-17T17:47:22.060Z,996.06
2022-11-17T18:17:22.046Z,995.81
2022-11-17T18:47:22.045Z,995.58
2022-11-17T19:17:22.045Z,996.2
2022-11-17T19:47:22.051Z,996.02
2022-11-17T20:17:22.059Z,996.52
2022-11-17T20:47:22.048Z,996.35
2022-11-17T21:17:22.140Z,996.23
2022-11-17T21:47:22.055Z,996.3
2022-11-17T22:17:22.083Z,996.36
2022-11-17T22:47:22.077Z,996.7
2022-11-17T23:17:22.083Z,996.77
2022-11-17T23:47:22.084Z,996.71
